03:42
Airports
History
Links
Donate
Help keep this website running!
PayPal
Bitcoin
This page is community maintained. The information is intended for PC simulator navigation or reference.
Always use approved charts for navigation.
SDMC
Marica
Marica (SDMC)
Maricá, Rio de Janeiro, Brazil (24900)
(C)
Lat/Lng:22° 55' 10.02" S / 42° 49' 51.34" W
-22.91945 / -42.830929
Elevation:13'ft / 4mMSL
ID / ICAO:SDMC
Runways:1
Longest:08-26
Asphalt 1,191m / 3,907ft
Controlled:Yes
Nearby Weather03:00 GMT 2017-12-13
Nearby weather at SBRJ, Santos-Dumont located 21.1 nautical miles from SDMC
Altimeter: 30.06
Visibility: 6.2 statute miles
Wind: 4 knots (from 010°)
Temp: 22°c / 72°f
Humidity: 88.4%

METAR: SBRJ 130300Z 01004KT 9999 FEW020 BKN040 22/20 Q1018

(Powered by phpweather)
Runway 08 / 26
Dimensions:1190.9 x 29.9m 3907' x 98'ft
Surface:Asphalt
Runway 08 [A]Runway 26 [B]
Heading:063°TH 243°TH
Lat:
Lng:
22° 55' 18.67"S
42° 50' 9.95"W
22° 55' 1.37"S
42° 49' 32.74"W
User Notes and Comments
22° 55' 10.02" S / 42° 49' 51.34" W
Distance To
Airport ID:
Nearby Airports
4 Saquarema 20.6 NM
SDSK E 91°
(C) Santos-Dumont 21.1 NM
SBRJ ( WX ) W 271°
(C) Galeao Antonio Carlos Jombim 27.1 NM
SBGL ( WX ) WNW 286°
(C) Jacarepagua 34.6 NM
SBJR ( WX ) W 262°
(C) Campo Delio Jardim de Mattos 35.4 NM
SBAF ( WX ) W 274°
4 Clube Ceu 36.7 NM
SDIN W 261°
(U) AEROCLUBE NOVA IGUACU 41.8 NM
SDNY WNW 286°
VFR Chart
Flight Planning at SkyVector.com